This is the latest recevied weather packets stored in our database for station/object IZ5MJO-13. If no packets are shown the sender has not sent any weather packets the latest 1 day(s).
| Time | Temp. | Humidity | Pressure | Rain* | Wind** | Luminosity | Snow |
|---|---|---|---|---|---|---|---|
| 1778101134 | 10.56° C | 72% | 1003.4 hPa | - | - | - | - |
| 1778097836 | 11.11° C | 72% | 1002.6 hPa | - | - | - | - |
| 1778095740 | 11.11° C | 73% | 1002.4 hPa | - | - | - | - |
| 1778094840 | 11.11° C | 73% | 1002.2 hPa | - | - | - | - |
| 1778093484 | 12.22° C | 73% | 1001.5 hPa | - | - | - | - |
| 1778093044 | 12.78° C | 71% | 1001.1 hPa | - | - | - | - |
| 1778092575 | 16.11° C | 63% | 1000.9 hPa | - | - | - | - |
| 1778092361 | 16.67° C | 62% | 1000.8 hPa | - | - | - | - |
| 1778092090 | 17.22° C | 60% | 1000.7 hPa | - | - | - | - |
| 1778090620 | 19.44° C | 52% | 1000.6 hPa | - | - | - | - |
| 1778089437 | 12.78° C | 74% | 1001.3 hPa | - | - | - | - |
| 1778085835 | 13.33° C | 68% | 1001.1 hPa | - | - | - | - |
| 1778084935 | 15° C | 66% | 1001 hPa | - | - | - | - |
| 1778084035 | 16.11° C | 63% | 1000.9 hPa | - | - | - | - |
| 1778083135 | 16.67° C | 62% | 1000.8 hPa | - | - | - | - |
| 1778080434 | 19.44° C | 52% | 1000.6 hPa | - | - | - | - |
| 1778072338 | 19.44° C | 58% | 1001.2 hPa | - | - | - | - |
| 1778071438 | 18.89° C | 60% | 1001 hPa | - | - | - | - |
| 1778066937 | 18.33° C | 68% | 1001.1 hPa | - | - | - | - |
| 1778066037 | 17.22° C | 71% | 1001.2 hPa | - | - | - | - |
| 1778065136 | 16.67° C | 71% | 1001.4 hPa | - | - | - | - |
| 1778062435 | 16.11° C | 72% | 1001.4 hPa | - | - | - | - |
| 1778061535 | 16.11° C | 71% | 1001.3 hPa | - | - | - | - |
| 1778059734 | 16.11° C | 79% | 1001.3 hPa | - | - | - | - |
| 1778058834 | 15° C | 75% | 1001.2 hPa | - | - | - | - |
* Rain since midnight (hover to see other rain measurements)
** Current wind speed in m/s (hover to see current wind gust speed)